Terminal Aerodrome Forecast
Issued by NWS

Home | Current Version | Previous Version | Graphics & Text | Print | Product List | Glossary On
Versions: 1 2 3 4 5 6 7 8 9 10 11 12 13 14 15 16 17 18 19 20 21 22 23 24 25
148
FTUS43 KLOT 161500 AAA
TAFDPA
TAF AMD
KDPA 161500Z 1615/1712 16008KT P6SM BKN070
     FM161800 14010KT P6SM BKN150
     FM170100 10006KT P6SM SCT150 BKN250
     FM170600 VRB03KT P6SM FEW150 SCT250=

USA.gov is the U.S. government's official web portal to all federal, state and local government web resources and services.